sensor_id;sensor_type;location;lat;lon;timestamp;temperature;humidity
12268;DHT22;6196;48.398;11.736;2022-10-22T00:00:04;14.00;99.90
12268;DHT22;6196;48.398;11.736;2022-10-22T00:02:32;13.90;99.90
12268;DHT22;6196;48.398;11.736;2022-10-22T00:04:59;13.90;99.90
12268;DHT22;6196;48.398;11.736;2022-10-22T00:07:26;13.90;99.90
12268;DHT22;6196;48.398;11.736;2022-10-22T00:09:53;14.00;99.90
12268;DHT22;6196;48.398;11.736;2022-10-22T00:12:20;14.00;99.90
12268;DHT22;6196;48.398;11.736;2022-10-22T00:14:48;13.90;99.90
12268;DHT22;6196;48.398;11.736;2022-10-22T00:17:15;14.00;99.90
12268;DHT22;6196;48.398;11.736;2022-10-22T00:19:41;14.10;99.90
12268;DHT22;6196;48.398;11.736;2022-10-22T00:22:09;14.10;99.90
12268;DHT22;6196;48.398;11.736;2022-10-22T00:24:37;14.10;99.90
12268;DHT22;6196;48.398;11.736;2022-10-22T00:27:06;14.10;99.90
12268;DHT22;6196;48.398;11.736;2022-10-22T00:29:34;14.10;99.90
12268;DHT22;6196;48.398;11.736;2022-10-22T00:32:01;14.10;99.90
12268;DHT22;6196;48.398;11.736;2022-10-22T00:34:28;14.10;99.90
12268;DHT22;6196;48.398;11.736;2022-10-22T00:36:55;14.10;99.90
12268;DHT22;6196;48.398;11.736;2022-10-22T00:39:23;14.10;99.90
12268;DHT22;6196;48.398;11.736;2022-10-22T00:41:53;14.10;99.90
12268;DHT22;6196;48.398;11.736;2022-10-22T00:47:35;14.00;99.90
12268;DHT22;6196;48.398;11.736;2022-10-22T00:50:06;14.00;99.90
12268;DHT22;6196;48.398;11.736;2022-10-22T00:52:35;14.00;99.90
12268;DHT22;6196;48.398;11.736;2022-10-22T00:55:03;14.00;99.90
12268;DHT22;6196;48.398;11.736;2022-10-22T00:57:30;14.00;99.90
12268;DHT22;6196;48.398;11.736;2022-10-22T00:59:57;14.00;99.90
12268;DHT22;6196;48.398;11.736;2022-10-22T01:02:24;14.00;99.90
12268;DHT22;6196;48.398;11.736;2022-10-22T01:04:51;14.00;99.90
12268;DHT22;6196;48.398;11.736;2022-10-22T01:07:21;14.10;99.90
12268;DHT22;6196;48.398;11.736;2022-10-22T01:10:16;14.10;99.90
12268;DHT22;6196;48.398;11.736;2022-10-22T01:16:01;14.10;99.90
12268;DHT22;6196;48.398;11.736;2022-10-22T01:18:58;14.20;99.90
12268;DHT22;6196;48.398;11.736;2022-10-22T01:21:41;14.20;99.90
12268;DHT22;6196;48.398;11.736;2022-10-22T01:24:24;14.20;99.90
12268;DHT22;6196;48.398;11.736;2022-10-22T01:30:11;14.10;99.90
12268;DHT22;6196;48.398;11.736;2022-10-22T01:32:46;14.10;99.90
12268;DHT22;6196;48.398;11.736;2022-10-22T01:35:19;14.10;99.90
12268;DHT22;6196;48.398;11.736;2022-10-22T01:37:53;14.10;99.90
12268;DHT22;6196;48.398;11.736;2022-10-22T01:40:23;14.10;99.90
12268;DHT22;6196;48.398;11.736;2022-10-22T01:43:05;14.10;99.90
12268;DHT22;6196;48.398;11.736;2022-10-22T01:45:43;14.00;99.90
12268;DHT22;6196;48.398;11.736;2022-10-22T01:51:20;14.00;99.90
12268;DHT22;6196;48.398;11.736;2022-10-22T02:02:27;14.10;99.90
12268;DHT22;6196;48.398;11.736;2022-10-22T02:05:04;14.00;99.90
12268;DHT22;6196;48.398;11.736;2022-10-22T02:07:38;14.00;99.90
12268;DHT22;6196;48.398;11.736;2022-10-22T02:10:13;14.10;99.90
12268;DHT22;6196;48.398;11.736;2022-10-22T02:12:42;14.10;99.90
12268;DHT22;6196;48.398;11.736;2022-10-22T02:15:11;14.10;99.90
12268;DHT22;6196;48.398;11.736;2022-10-22T02:17:42;14.00;99.90
12268;DHT22;6196;48.398;11.736;2022-10-22T02:20:31;14.00;99.90
12268;DHT22;6196;48.398;11.736;2022-10-22T02:22:59;14.00;99.90
12268;DHT22;6196;48.398;11.736;2022-10-22T02:25:34;14.00;99.90
12268;DHT22;6196;48.398;11.736;2022-10-22T02:28:12;14.00;99.90
12268;DHT22;6196;48.398;11.736;2022-10-22T02:30:46;14.00;99.90
12268;DHT22;6196;48.398;11.736;2022-10-22T02:33:41;14.00;99.90
12268;DHT22;6196;48.398;11.736;2022-10-22T02:36:12;13.90;99.90
12268;DHT22;6196;48.398;11.736;2022-10-22T02:38:41;13.80;99.90
12268;DHT22;6196;48.398;11.736;2022-10-22T02:41:08;13.90;99.90
12268;DHT22;6196;48.398;11.736;2022-10-22T02:43:43;13.90;99.90
12268;DHT22;6196;48.398;11.736;2022-10-22T02:46:14;13.90;99.90
12268;DHT22;6196;48.398;11.736;2022-10-22T02:48:41;14.00;99.90
12268;DHT22;6196;48.398;11.736;2022-10-22T02:51:07;13.90;99.90
12268;DHT22;6196;48.398;11.736;2022-10-22T02:53:34;13.90;99.90
12268;DHT22;6196;48.398;11.736;2022-10-22T02:56:01;13.90;99.90
12268;DHT22;6196;48.398;11.736;2022-10-22T02:58:28;13.80;99.90
12268;DHT22;6196;48.398;11.736;2022-10-22T03:00:55;13.90;99.90
12268;DHT22;6196;48.398;11.736;2022-10-22T03:03:22;13.90;99.90
12268;DHT22;6196;48.398;11.736;2022-10-22T03:05:52;13.90;99.90
12268;DHT22;6196;48.398;11.736;2022-10-22T03:08:18;13.90;99.90
12268;DHT22;6196;48.398;11.736;2022-10-22T03:10:45;13.90;99.90
12268;DHT22;6196;48.398;11.736;2022-10-22T03:13:12;13.80;99.90
12268;DHT22;6196;48.398;11.736;2022-10-22T03:15:39;13.80;99.90
12268;DHT22;6196;48.398;11.736;2022-10-22T03:18:06;13.90;99.90
12268;DHT22;6196;48.398;11.736;2022-10-22T03:20:34;13.80;99.90
12268;DHT22;6196;48.398;11.736;2022-10-22T03:23:01;14.00;99.90
12268;DHT22;6196;48.398;11.736;2022-10-22T03:25:29;14.00;99.90
12268;DHT22;6196;48.398;11.736;2022-10-22T03:28:02;14.00;99.90
12268;DHT22;6196;48.398;11.736;2022-10-22T03:30:31;14.00;99.90
12268;DHT22;6196;48.398;11.736;2022-10-22T03:32:58;14.10;99.90
12268;DHT22;6196;48.398;11.736;2022-10-22T03:35:25;14.10;99.90
12268;DHT22;6196;48.398;11.736;2022-10-22T03:37:52;14.10;99.90
12268;DHT22;6196;48.398;11.736;2022-10-22T03:40:20;14.00;99.90
12268;DHT22;6196;48.398;11.736;2022-10-22T03:42:47;14.00;99.90
12268;DHT22;6196;48.398;11.736;2022-10-22T03:45:13;13.90;99.90
12268;DHT22;6196;48.398;11.736;2022-10-22T03:47:40;14.00;99.90
12268;DHT22;6196;48.398;11.736;2022-10-22T03:50:08;14.00;99.90
12268;DHT22;6196;48.398;11.736;2022-10-22T03:52:37;13.90;99.90
12268;DHT22;6196;48.398;11.736;2022-10-22T03:55:05;14.00;99.90
12268;DHT22;6196;48.398;11.736;2022-10-22T03:57:32;14.00;99.90
12268;DHT22;6196;48.398;11.736;2022-10-22T03:59:59;14.00;99.90
12268;DHT22;6196;48.398;11.736;2022-10-22T04:02:26;14.00;99.90
12268;DHT22;6196;48.398;11.736;2022-10-22T04:04:53;14.00;99.90
12268;DHT22;6196;48.398;11.736;2022-10-22T04:07:20;13.90;99.90
12268;DHT22;6196;48.398;11.736;2022-10-22T04:09:47;13.90;99.90
12268;DHT22;6196;48.398;11.736;2022-10-22T04:12:14;13.90;99.90
12268;DHT22;6196;48.398;11.736;2022-10-22T04:14:40;13.90;99.90
12268;DHT22;6196;48.398;11.736;2022-10-22T04:17:07;13.90;99.90
12268;DHT22;6196;48.398;11.736;2022-10-22T04:19:34;13.80;99.90
12268;DHT22;6196;48.398;11.736;2022-10-22T04:22:01;13.80;99.90
12268;DHT22;6196;48.398;11.736;2022-10-22T04:24:30;13.80;99.90
12268;DHT22;6196;48.398;11.736;2022-10-22T04:26:57;13.80;99.90
12268;DHT22;6196;48.398;11.736;2022-10-22T04:29:25;13.80;99.90
12268;DHT22;6196;48.398;11.736;2022-10-22T04:31:52;13.80;99.90
12268;DHT22;6196;48.398;11.736;2022-10-22T04:34:19;13.80;99.90
12268;DHT22;6196;48.398;11.736;2022-10-22T04:36:46;13.80;99.90
12268;DHT22;6196;48.398;11.736;2022-10-22T04:39:13;13.80;99.90
12268;DHT22;6196;48.398;11.736;2022-10-22T04:41:40;13.70;99.90
12268;DHT22;6196;48.398;11.736;2022-10-22T04:44:07;13.70;99.90
12268;DHT22;6196;48.398;11.736;2022-10-22T04:46:41;13.60;99.90
12268;DHT22;6196;48.398;11.736;2022-10-22T04:49:08;13.60;99.90
12268;DHT22;6196;48.398;11.736;2022-10-22T04:51:35;13.40;99.90
12268;DHT22;6196;48.398;11.736;2022-10-22T04:54:03;13.50;99.90
12268;DHT22;6196;48.398;11.736;2022-10-22T04:56:30;13.40;99.90
12268;DHT22;6196;48.398;11.736;2022-10-22T04:59:03;13.30;99.90
12268;DHT22;6196;48.398;11.736;2022-10-22T05:01:34;13.30;99.90
12268;DHT22;6196;48.398;11.736;2022-10-22T05:04:14;13.30;99.90
12268;DHT22;6196;48.398;11.736;2022-10-22T05:06:42;13.30;99.90
12268;DHT22;6196;48.398;11.736;2022-10-22T05:09:17;13.30;99.90
12268;DHT22;6196;48.398;11.736;2022-10-22T05:11:47;13.20;99.90
12268;DHT22;6196;48.398;11.736;2022-10-22T05:14:21;13.20;99.90
12268;DHT22;6196;48.398;11.736;2022-10-22T05:16:49;13.10;99.90
12268;DHT22;6196;48.398;11.736;2022-10-22T05:19:28;13.10;99.90
12268;DHT22;6196;48.398;11.736;2022-10-22T05:21:59;13.10;99.90
12268;DHT22;6196;48.398;11.736;2022-10-22T05:24:28;13.10;99.90
12268;DHT22;6196;48.398;11.736;2022-10-22T05:26:56;13.10;99.90
12268;DHT22;6196;48.398;11.736;2022-10-22T05:29:24;12.90;99.90
12268;DHT22;6196;48.398;11.736;2022-10-22T05:31:52;13.00;99.90
12268;DHT22;6196;48.398;11.736;2022-10-22T05:34:19;13.00;99.90
12268;DHT22;6196;48.398;11.736;2022-10-22T05:36:45;13.00;99.90
12268;DHT22;6196;48.398;11.736;2022-10-22T05:39:12;13.00;99.90
12268;DHT22;6196;48.398;11.736;2022-10-22T05:41:39;12.90;99.90
12268;DHT22;6196;48.398;11.736;2022-10-22T05:44:06;13.00;99.90
12268;DHT22;6196;48.398;11.736;2022-10-22T05:46:34;12.90;99.90
12268;DHT22;6196;48.398;11.736;2022-10-22T05:49:05;12.90;99.90
12268;DHT22;6196;48.398;11.736;2022-10-22T05:51:34;13.00;99.90
12268;DHT22;6196;48.398;11.736;2022-10-22T05:54:03;12.90;99.90
12268;DHT22;6196;48.398;11.736;2022-10-22T05:56:32;12.90;99.90
12268;DHT22;6196;48.398;11.736;2022-10-22T05:59:00;12.90;99.90
12268;DHT22;6196;48.398;11.736;2022-10-22T06:01:33;12.80;99.90
12268;DHT22;6196;48.398;11.736;2022-10-22T06:04:07;12.80;99.90
12268;DHT22;6196;48.398;11.736;2022-10-22T06:06:39;13.00;99.90
12268;DHT22;6196;48.398;11.736;2022-10-22T06:11:52;12.90;99.90
12268;DHT22;6196;48.398;11.736;2022-10-22T06:14:19;12.90;99.90
12268;DHT22;6196;48.398;11.736;2022-10-22T06:16:47;12.90;99.90
12268;DHT22;6196;48.398;11.736;2022-10-22T06:19:15;13.00;99.90
12268;DHT22;6196;48.398;11.736;2022-10-22T06:21:43;12.90;99.90
12268;DHT22;6196;48.398;11.736;2022-10-22T06:24:11;12.90;99.90
12268;DHT22;6196;48.398;11.736;2022-10-22T06:26:39;13.00;99.90
12268;DHT22;6196;48.398;11.736;2022-10-22T06:29:06;13.00;99.90
12268;DHT22;6196;48.398;11.736;2022-10-22T06:31:34;13.00;99.90
12268;DHT22;6196;48.398;11.736;2022-10-22T06:34:07;13.00;99.90
12268;DHT22;6196;48.398;11.736;2022-10-22T06:36:36;13.00;99.90
12268;DHT22;6196;48.398;11.736;2022-10-22T06:39:04;13.00;99.90
12268;DHT22;6196;48.398;11.736;2022-10-22T06:41:31;12.90;99.90
12268;DHT22;6196;48.398;11.736;2022-10-22T06:43:58;12.90;99.90
12268;DHT22;6196;48.398;11.736;2022-10-22T06:46:25;12.90;99.90
12268;DHT22;6196;48.398;11.736;2022-10-22T06:48:55;13.00;99.90
12268;DHT22;6196;48.398;11.736;2022-10-22T06:51:24;12.90;99.90
12268;DHT22;6196;48.398;11.736;2022-10-22T06:53:52;12.90;99.90
12268;DHT22;6196;48.398;11.736;2022-10-22T06:56:23;12.90;99.90
12268;DHT22;6196;48.398;11.736;2022-10-22T06:58:53;12.90;99.90
12268;DHT22;6196;48.398;11.736;2022-10-22T07:01:24;12.90;99.90
12268;DHT22;6196;48.398;11.736;2022-10-22T07:03:53;12.80;99.90
12268;DHT22;6196;48.398;11.736;2022-10-22T07:06:21;12.90;99.90
12268;DHT22;6196;48.398;11.736;2022-10-22T07:08:49;12.80;99.90
12268;DHT22;6196;48.398;11.736;2022-10-22T07:13:49;13.00;99.90
12268;DHT22;6196;48.398;11.736;2022-10-22T07:16:17;13.00;99.90
12268;DHT22;6196;48.398;11.736;2022-10-22T07:18:44;13.10;99.90
12268;DHT22;6196;48.398;11.736;2022-10-22T07:21:13;13.10;99.90
12268;DHT22;6196;48.398;11.736;2022-10-22T07:23:42;13.20;99.90
12268;DHT22;6196;48.398;11.736;2022-10-22T07:26:11;13.20;99.90
12268;DHT22;6196;48.398;11.736;2022-10-22T07:28:40;13.30;99.90
12268;DHT22;6196;48.398;11.736;2022-10-22T07:31:09;13.30;99.90
12268;DHT22;6196;48.398;11.736;2022-10-22T07:33:37;13.30;99.90
12268;DHT22;6196;48.398;11.736;2022-10-22T07:36:06;13.40;99.90
12268;DHT22;6196;48.398;11.736;2022-10-22T07:38:35;13.40;99.90
12268;DHT22;6196;48.398;11.736;2022-10-22T07:41:02;13.50;99.90
12268;DHT22;6196;48.398;11.736;2022-10-22T07:43:29;13.50;99.90
12268;DHT22;6196;48.398;11.736;2022-10-22T07:45:56;13.60;99.90
12268;DHT22;6196;48.398;11.736;2022-10-22T07:48:25;13.60;99.90
12268;DHT22;6196;48.398;11.736;2022-10-22T07:50:51;13.70;99.90
12268;DHT22;6196;48.398;11.736;2022-10-22T07:53:18;13.80;99.90
12268;DHT22;6196;48.398;11.736;2022-10-22T07:55:48;13.80;99.90
12268;DHT22;6196;48.398;11.736;2022-10-22T07:58:16;13.80;99.90
12268;DHT22;6196;48.398;11.736;2022-10-22T08:00:44;13.90;99.90
12268;DHT22;6196;48.398;11.736;2022-10-22T08:03:12;14.10;99.90
12268;DHT22;6196;48.398;11.736;2022-10-22T08:05:40;14.00;99.90
12268;DHT22;6196;48.398;11.736;2022-10-22T08:08:11;14.10;99.90
12268;DHT22;6196;48.398;11.736;2022-10-22T08:10:39;14.20;99.90
12268;DHT22;6196;48.398;11.736;2022-10-22T08:13:06;14.20;99.90
12268;DHT22;6196;48.398;11.736;2022-10-22T08:15:34;14.00;99.90
12268;DHT22;6196;48.398;11.736;2022-10-22T08:18:01;14.10;99.90
12268;DHT22;6196;48.398;11.736;2022-10-22T08:20:28;14.10;99.90
12268;DHT22;6196;48.398;11.736;2022-10-22T08:22:55;14.30;99.90
12268;DHT22;6196;48.398;11.736;2022-10-22T08:25:22;14.30;99.90
12268;DHT22;6196;48.398;11.736;2022-10-22T08:27:49;14.50;99.90
12268;DHT22;6196;48.398;11.736;2022-10-22T08:30:16;14.40;99.90
12268;DHT22;6196;48.398;11.736;2022-10-22T08:32:43;14.30;99.90
12268;DHT22;6196;48.398;11.736;2022-10-22T08:35:10;14.30;99.90
12268;DHT22;6196;48.398;11.736;2022-10-22T08:37:42;14.40;99.90
12268;DHT22;6196;48.398;11.736;2022-10-22T08:40:18;14.30;99.90
12268;DHT22;6196;48.398;11.736;2022-10-22T08:48:45;14.40;99.90
12268;DHT22;6196;48.398;11.736;2022-10-22T08:51:20;14.50;99.90
12268;DHT22;6196;48.398;11.736;2022-10-22T08:54:13;14.60;99.90
12268;DHT22;6196;48.398;11.736;2022-10-22T08:56:44;14.70;99.90
12268;DHT22;6196;48.398;11.736;2022-10-22T08:59:20;14.70;99.90
12268;DHT22;6196;48.398;11.736;2022-10-22T09:01:51;14.80;99.90
12268;DHT22;6196;48.398;11.736;2022-10-22T09:04:32;14.90;99.90
12268;DHT22;6196;48.398;11.736;2022-10-22T09:07:03;15.00;99.90
12268;DHT22;6196;48.398;11.736;2022-10-22T09:09:38;15.10;99.90
12268;DHT22;6196;48.398;11.736;2022-10-22T09:12:10;15.20;99.90
12268;DHT22;6196;48.398;11.736;2022-10-22T09:14:45;15.30;99.90
12268;DHT22;6196;48.398;11.736;2022-10-22T09:20:12;15.30;99.90
12268;DHT22;6196;48.398;11.736;2022-10-22T09:23:18;15.30;99.90
12268;DHT22;6196;48.398;11.736;2022-10-22T09:25:41;15.40;99.90
12268;DHT22;6196;48.398;11.736;2022-10-22T09:28:09;15.40;99.90
12268;DHT22;6196;48.398;11.736;2022-10-22T09:30:37;15.40;99.90
12268;DHT22;6196;48.398;11.736;2022-10-22T09:33:25;15.40;99.90
12268;DHT22;6196;48.398;11.736;2022-10-22T09:35:57;15.50;99.90
12268;DHT22;6196;48.398;11.736;2022-10-22T09:38:38;15.50;99.90
12268;DHT22;6196;48.398;11.736;2022-10-22T09:41:07;15.40;99.90
12268;DHT22;6196;48.398;11.736;2022-10-22T09:43:34;15.40;99.90
12268;DHT22;6196;48.398;11.736;2022-10-22T09:46:06;15.60;99.90
12268;DHT22;6196;48.398;11.736;2022-10-22T09:49:29;15.80;99.90
12268;DHT22;6196;48.398;11.736;2022-10-22T09:51:57;16.10;99.90
12268;DHT22;6196;48.398;11.736;2022-10-22T09:54:41;16.30;99.90
12268;DHT22;6196;48.398;11.736;2022-10-22T09:57:20;16.40;99.90
12268;DHT22;6196;48.398;11.736;2022-10-22T09:59:49;16.30;99.90
12268;DHT22;6196;48.398;11.736;2022-10-22T10:02:20;16.20;99.90
12268;DHT22;6196;48.398;11.736;2022-10-22T10:05:04;16.30;99.90
12268;DHT22;6196;48.398;11.736;2022-10-22T10:07:33;16.30;99.90
12268;DHT22;6196;48.398;11.736;2022-10-22T10:10:05;16.40;99.90
12268;DHT22;6196;48.398;11.736;2022-10-22T10:26:54;16.00;99.90
12268;DHT22;6196;48.398;11.736;2022-10-22T10:35:24;16.00;99.90
12268;DHT22;6196;48.398;11.736;2022-10-22T10:41:22;15.80;99.90
12268;DHT22;6196;48.398;11.736;2022-10-22T10:49:53;15.70;99.90
12268;DHT22;6196;48.398;11.736;2022-10-22T10:52:44;15.70;99.90
12268;DHT22;6196;48.398;11.736;2022-10-22T10:55:32;15.90;99.90
12268;DHT22;6196;48.398;11.736;2022-10-22T11:07:25;16.60;99.90
12268;DHT22;6196;48.398;11.736;2022-10-22T11:10:29;16.80;99.90
12268;DHT22;6196;48.398;11.736;2022-10-22T11:13:05;17.00;99.90
12268;DHT22;6196;48.398;11.736;2022-10-22T11:18:36;17.50;99.90
12268;DHT22;6196;48.398;11.736;2022-10-22T11:21:08;17.90;99.90
12268;DHT22;6196;48.398;11.736;2022-10-22T11:24:03;18.30;99.90
12268;DHT22;6196;48.398;11.736;2022-10-22T11:26:43;18.50;99.90
12268;DHT22;6196;48.398;11.736;2022-10-22T11:29:18;18.30;99.90
12268;DHT22;6196;48.398;11.736;2022-10-22T11:31:49;18.20;99.90
12268;DHT22;6196;48.398;11.736;2022-10-22T11:34:41;18.30;99.90
12268;DHT22;6196;48.398;11.736;2022-10-22T11:37:10;18.30;99.90
12268;DHT22;6196;48.398;11.736;2022-10-22T11:39:50;18.30;99.90
12268;DHT22;6196;48.398;11.736;2022-10-22T11:42:36;18.30;99.90
12268;DHT22;6196;48.398;11.736;2022-10-22T11:48:06;18.20;99.90
12268;DHT22;6196;48.398;11.736;2022-10-22T11:53:31;17.80;99.90
12268;DHT22;6196;48.398;11.736;2022-10-22T11:58:40;17.20;99.90
12268;DHT22;6196;48.398;11.736;2022-10-22T12:01:26;17.20;99.90
12268;DHT22;6196;48.398;11.736;2022-10-22T12:06:27;17.20;99.90
12268;DHT22;6196;48.398;11.736;2022-10-22T12:09:01;17.60;99.90
12268;DHT22;6196;48.398;11.736;2022-10-22T12:11:44;18.20;99.90
12268;DHT22;6196;48.398;11.736;2022-10-22T12:16:54;18.90;99.90
12268;DHT22;6196;48.398;11.736;2022-10-22T12:19:42;20.20;99.90
12268;DHT22;6196;48.398;11.736;2022-10-22T12:22:20;21.50;99.90
12268;DHT22;6196;48.398;11.736;2022-10-22T12:24:52;21.60;99.90
12268;DHT22;6196;48.398;11.736;2022-10-22T12:27:24;23.50;99.90
12268;DHT22;6196;48.398;11.736;2022-10-22T12:29:56;25.30;99.90
12268;DHT22;6196;48.398;11.736;2022-10-22T12:32:36;26.50;99.90
12268;DHT22;6196;48.398;11.736;2022-10-22T12:35:08;27.00;99.90
12268;DHT22;6196;48.398;11.736;2022-10-22T12:37:40;28.60;99.90
12268;DHT22;6196;48.398;11.736;2022-10-22T12:40:25;29.90;99.90
12268;DHT22;6196;48.398;11.736;2022-10-22T12:42:59;28.80;99.90
12268;DHT22;6196;48.398;11.736;2022-10-22T12:45:30;30.30;99.90
12268;DHT22;6196;48.398;11.736;2022-10-22T12:48:04;27.60;99.90
12268;DHT22;6196;48.398;11.736;2022-10-22T12:50:35;27.50;99.90
12268;DHT22;6196;48.398;11.736;2022-10-22T12:53:28;27.30;99.90
12268;DHT22;6196;48.398;11.736;2022-10-22T12:56:03;26.90;99.90
12268;DHT22;6196;48.398;11.736;2022-10-22T12:58:39;26.40;99.90
12268;DHT22;6196;48.398;11.736;2022-10-22T13:01:13;26.90;99.90
12268;DHT22;6196;48.398;11.736;2022-10-22T13:03:45;26.30;99.90
12268;DHT22;6196;48.398;11.736;2022-10-22T13:11:49;23.10;99.90
12268;DHT22;6196;48.398;11.736;2022-10-22T13:14:31;25.00;99.90
12268;DHT22;6196;48.398;11.736;2022-10-22T13:22:33;26.50;99.90
12268;DHT22;6196;48.398;11.736;2022-10-22T13:30:31;28.00;99.90
12268;DHT22;6196;48.398;11.736;2022-10-22T13:33:19;29.00;99.90
12268;DHT22;6196;48.398;11.736;2022-10-22T13:35:48;27.30;99.90
12268;DHT22;6196;48.398;11.736;2022-10-22T13:38:18;27.60;99.90
12268;DHT22;6196;48.398;11.736;2022-10-22T13:40:46;29.50;99.90
12268;DHT22;6196;48.398;11.736;2022-10-22T13:43:13;29.00;99.90
12268;DHT22;6196;48.398;11.736;2022-10-22T13:45:40;29.50;99.90
12268;DHT22;6196;48.398;11.736;2022-10-22T13:48:12;30.10;99.90
12268;DHT22;6196;48.398;11.736;2022-10-22T13:50:40;30.60;99.90
12268;DHT22;6196;48.398;11.736;2022-10-22T13:53:20;30.90;99.90
12268;DHT22;6196;48.398;11.736;2022-10-22T13:55:49;30.60;99.90
12268;DHT22;6196;48.398;11.736;2022-10-22T13:58:18;29.00;99.90
12268;DHT22;6196;48.398;11.736;2022-10-22T14:00:49;27.50;99.90
12268;DHT22;6196;48.398;11.736;2022-10-22T14:03:19;26.00;99.90
12268;DHT22;6196;48.398;11.736;2022-10-22T14:05:47;26.10;99.90
12268;DHT22;6196;48.398;11.736;2022-10-22T14:08:17;27.50;99.90
12268;DHT22;6196;48.398;11.736;2022-10-22T14:10:45;27.50;99.90
12268;DHT22;6196;48.398;11.736;2022-10-22T14:13:14;26.80;99.90
12268;DHT22;6196;48.398;11.736;2022-10-22T14:15:44;27.60;99.90
12268;DHT22;6196;48.398;11.736;2022-10-22T14:18:15;28.60;99.90
12268;DHT22;6196;48.398;11.736;2022-10-22T14:20:55;29.10;99.90
12268;DHT22;6196;48.398;11.736;2022-10-22T14:23:27;27.40;99.90
12268;DHT22;6196;48.398;11.736;2022-10-22T14:25:56;25.70;99.90
12268;DHT22;6196;48.398;11.736;2022-10-22T14:28:24;24.40;99.90
12268;DHT22;6196;48.398;11.736;2022-10-22T14:30:57;23.90;99.90
12268;DHT22;6196;48.398;11.736;2022-10-22T14:33:29;24.90;99.90
12268;DHT22;6196;48.398;11.736;2022-10-22T14:36:01;26.40;99.90
12268;DHT22;6196;48.398;11.736;2022-10-22T14:38:28;27.30;99.90
12268;DHT22;6196;48.398;11.736;2022-10-22T14:40:56;28.30;99.90
12268;DHT22;6196;48.398;11.736;2022-10-22T14:43:26;29.50;99.90
12268;DHT22;6196;48.398;11.736;2022-10-22T14:45:54;30.20;99.90
12268;DHT22;6196;48.398;11.736;2022-10-22T14:48:21;30.30;99.90
12268;DHT22;6196;48.398;11.736;2022-10-22T14:50:49;30.50;99.90
12268;DHT22;6196;48.398;11.736;2022-10-22T14:53:16;30.60;99.90
12268;DHT22;6196;48.398;11.736;2022-10-22T14:55:45;29.90;99.90
12268;DHT22;6196;48.398;11.736;2022-10-22T14:58:14;28.40;99.90
12268;DHT22;6196;48.398;11.736;2022-10-22T15:00:42;27.20;99.90
12268;DHT22;6196;48.398;11.736;2022-10-22T15:03:09;26.00;99.90
12268;DHT22;6196;48.398;11.736;2022-10-22T15:05:44;24.80;99.90
12268;DHT22;6196;48.398;11.736;2022-10-22T15:08:12;23.50;99.90
12268;DHT22;6196;48.398;11.736;2022-10-22T15:10:39;22.70;99.90
12268;DHT22;6196;48.398;11.736;2022-10-22T15:13:07;21.70;99.90
12268;DHT22;6196;48.398;11.736;2022-10-22T15:15:34;20.90;99.90
12268;DHT22;6196;48.398;11.736;2022-10-22T15:18:05;20.30;99.90
12268;DHT22;6196;48.398;11.736;2022-10-22T15:20:32;19.70;99.90
12268;DHT22;6196;48.398;11.736;2022-10-22T15:22:59;19.20;99.90
12268;DHT22;6196;48.398;11.736;2022-10-22T15:25:26;18.90;99.90
12268;DHT22;6196;48.398;11.736;2022-10-22T15:27:54;18.60;99.90
12268;DHT22;6196;48.398;11.736;2022-10-22T15:30:30;18.40;99.90
12268;DHT22;6196;48.398;11.736;2022-10-22T15:32:57;18.20;99.90
12268;DHT22;6196;48.398;11.736;2022-10-22T15:35:26;18.00;99.90
12268;DHT22;6196;48.398;11.736;2022-10-22T15:37:55;17.80;99.90
12268;DHT22;6196;48.398;11.736;2022-10-22T15:40:21;17.70;99.90
12268;DHT22;6196;48.398;11.736;2022-10-22T15:42:48;17.50;99.90
12268;DHT22;6196;48.398;11.736;2022-10-22T15:45:15;17.40;99.90
12268;DHT22;6196;48.398;11.736;2022-10-22T15:47:47;17.20;99.90
12268;DHT22;6196;48.398;11.736;2022-10-22T15:50:15;17.20;99.90
12268;DHT22;6196;48.398;11.736;2022-10-22T15:52:42;17.10;99.90
12268;DHT22;6196;48.398;11.736;2022-10-22T15:55:09;16.90;99.90
12268;DHT22;6196;48.398;11.736;2022-10-22T15:57:41;16.70;99.90
12268;DHT22;6196;48.398;11.736;2022-10-22T16:00:09;16.60;99.90
12268;DHT22;6196;48.398;11.736;2022-10-22T16:02:36;16.60;99.90
12268;DHT22;6196;48.398;11.736;2022-10-22T16:05:03;16.40;99.90
12268;DHT22;6196;48.398;11.736;2022-10-22T16:07:30;16.20;99.90
12268;DHT22;6196;48.398;11.736;2022-10-22T16:09:58;16.10;99.90
12268;DHT22;6196;48.398;11.736;2022-10-22T16:12:28;16.00;99.90
12268;DHT22;6196;48.398;11.736;2022-10-22T16:14:54;15.90;99.90
12268;DHT22;6196;48.398;11.736;2022-10-22T16:17:21;15.70;99.90
12268;DHT22;6196;48.398;11.736;2022-10-22T16:19:48;15.60;99.90
12268;DHT22;6196;48.398;11.736;2022-10-22T16:22:15;15.50;99.90
12268;DHT22;6196;48.398;11.736;2022-10-22T16:24:42;15.30;99.90
12268;DHT22;6196;48.398;11.736;2022-10-22T16:27:09;15.20;99.90
12268;DHT22;6196;48.398;11.736;2022-10-22T16:29:37;15.10;99.90
12268;DHT22;6196;48.398;11.736;2022-10-22T16:32:07;14.90;99.90
12268;DHT22;6196;48.398;11.736;2022-10-22T16:34:34;14.80;99.90
12268;DHT22;6196;48.398;11.736;2022-10-22T16:37:01;14.70;99.90
12268;DHT22;6196;48.398;11.736;2022-10-22T16:39:28;14.60;99.90
12268;DHT22;6196;48.398;11.736;2022-10-22T16:41:55;14.60;99.90
12268;DHT22;6196;48.398;11.736;2022-10-22T16:44:21;14.40;99.90
12268;DHT22;6196;48.398;11.736;2022-10-22T16:46:49;14.30;99.90
12268;DHT22;6196;48.398;11.736;2022-10-22T16:49:15;14.10;99.90
12268;DHT22;6196;48.398;11.736;2022-10-22T16:51:42;14.00;99.90
12268;DHT22;6196;48.398;11.736;2022-10-22T16:54:10;13.80;99.90
12268;DHT22;6196;48.398;11.736;2022-10-22T16:56:39;13.70;99.90
12268;DHT22;6196;48.398;11.736;2022-10-22T16:59:06;13.70;99.90
12268;DHT22;6196;48.398;11.736;2022-10-22T17:01:33;13.70;99.90
12268;DHT22;6196;48.398;11.736;2022-10-22T17:04:06;13.60;99.90
12268;DHT22;6196;48.398;11.736;2022-10-22T17:06:32;13.60;99.90
12268;DHT22;6196;48.398;11.736;2022-10-22T17:08:59;13.60;99.90
12268;DHT22;6196;48.398;11.736;2022-10-22T17:11:26;13.50;99.90
12268;DHT22;6196;48.398;11.736;2022-10-22T17:13:55;13.50;99.90
12268;DHT22;6196;48.398;11.736;2022-10-22T17:16:23;13.50;99.90
12268;DHT22;6196;48.398;11.736;2022-10-22T17:18:52;13.50;99.90
12268;DHT22;6196;48.398;11.736;2022-10-22T17:21:20;13.60;99.90
12268;DHT22;6196;48.398;11.736;2022-10-22T17:23:48;13.50;99.90
12268;DHT22;6196;48.398;11.736;2022-10-22T17:26:19;13.50;99.90
12268;DHT22;6196;48.398;11.736;2022-10-22T17:28:48;13.40;99.90
12268;DHT22;6196;48.398;11.736;2022-10-22T17:31:20;13.30;99.90
12268;DHT22;6196;48.398;11.736;2022-10-22T17:33:51;13.30;99.90
12268;DHT22;6196;48.398;11.736;2022-10-22T17:36:20;13.20;99.90
12268;DHT22;6196;48.398;11.736;2022-10-22T17:38:52;13.20;99.90